createdAt,value
2023-04-23T00:00:16.487Z,16.07
2023-04-23T00:02:50.112Z,15.90
2023-04-23T00:05:18.975Z,14.80
2023-04-23T00:07:47.551Z,14.80
2023-04-23T00:10:16.386Z,15.17
2023-04-23T00:12:46.900Z,14.80
2023-04-23T00:15:16.220Z,14.73
2023-04-23T00:17:44.577Z,15.30
2023-04-23T00:20:13.085Z,15.63
2023-04-23T00:22:41.724Z,15.60
2023-04-23T00:25:11.005Z,15.60
2023-04-23T00:27:39.615Z,15.83
2023-04-23T00:30:10.246Z,14.93
2023-04-23T00:32:38.750Z,14.40
2023-04-23T00:35:07.825Z,14.93
2023-04-23T00:37:36.167Z,15.13
2023-04-23T00:40:06.130Z,15.27
2023-04-23T00:42:35.004Z,15.57
2023-04-23T00:45:03.692Z,15.23
2023-04-23T00:47:35.103Z,15.50
2023-04-23T00:50:04.233Z,15.17
2023-04-23T00:52:32.678Z,15.43
2023-04-23T00:55:01.200Z,15.50
2023-04-23T00:57:29.758Z,14.47
2023-04-23T00:59:59.315Z,14.57
2023-04-23T01:02:30.601Z,15.47
2023-04-23T01:05:02.467Z,17.00
2023-04-23T01:07:31.035Z,17.43
2023-04-23T01:09:59.492Z,16.53
2023-04-23T01:12:28.543Z,14.93
2023-04-23T01:14:57.945Z,15.70
2023-04-23T01:17:26.918Z,14.93
2023-04-23T01:19:55.440Z,14.10
2023-04-23T01:22:25.507Z,15.00
2023-04-23T01:24:53.951Z,15.60
2023-04-23T01:27:25.011Z,14.07
2023-04-23T01:29:54.020Z,13.10
2023-04-23T01:32:23.258Z,15.43
2023-04-23T01:34:54.163Z,15.27
2023-04-23T01:37:24.916Z,18.00
2023-04-23T01:39:53.574Z,16.13
2023-04-23T01:42:23.511Z,18.37
2023-04-23T01:44:55.260Z,16.60
2023-04-23T01:47:23.853Z,18.40
2023-04-23T01:49:52.322Z,19.93
2023-04-23T01:52:21.076Z,20.33
2023-04-23T01:54:50.777Z,19.40
2023-04-23T01:57:24.311Z,20.37
2023-04-23T01:59:52.897Z,21.10
2023-04-23T02:02:22.194Z,25.27
2023-04-23T02:04:53.374Z,22.70
2023-04-23T02:07:22.022Z,23.23
2023-04-23T02:09:51.886Z,22.00
2023-04-23T02:12:20.416Z,20.53
2023-04-23T02:14:48.856Z,18.03
2023-04-23T02:17:17.426Z,16.90
2023-04-23T02:19:45.873Z,17.47
2023-04-23T02:22:14.304Z,17.17
2023-04-23T02:24:43.293Z,15.47
2023-04-23T02:27:13.252Z,15.17
2023-04-23T02:29:41.788Z,15.37
2023-04-23T02:32:11.271Z,15.43
2023-04-23T02:34:39.992Z,13.90
2023-04-23T02:37:08.697Z,15.50
2023-04-23T02:39:39.274Z,14.93
2023-04-23T02:42:08.442Z,14.83
2023-04-23T02:44:38.235Z,14.77
2023-04-23T02:47:06.704Z,14.67
2023-04-23T02:49:35.206Z,14.87
2023-04-23T02:52:04.084Z,14.13
2023-04-23T02:54:32.898Z,14.67
2023-04-23T02:57:01.784Z,15.73
2023-04-23T02:59:30.410Z,15.47
2023-04-23T03:02:00.382Z,16.03
2023-04-23T03:04:28.949Z,15.40
2023-04-23T03:06:57.489Z,13.93
2023-04-23T03:09:25.925Z,14.20
2023-04-23T03:11:54.376Z,14.27
2023-04-23T03:14:23.008Z,14.47
2023-04-23T03:16:51.494Z,15.20
2023-04-23T03:19:21.511Z,14.27
2023-04-23T03:21:49.928Z,14.80
2023-04-23T03:24:18.893Z,15.80
2023-04-23T03:26:47.657Z,14.97
2023-04-23T03:29:17.030Z,15.20
2023-04-23T03:31:45.799Z,14.53
2023-04-23T03:34:14.766Z,15.27
2023-04-23T03:36:48.777Z,14.77
2023-04-23T03:39:17.990Z,14.30
2023-04-23T03:41:51.655Z,15.20
2023-04-23T03:44:23.828Z,17.13
2023-04-23T03:46:52.633Z,15.00
2023-04-23T03:49:23.132Z,16.57
2023-04-23T03:51:52.866Z,15.67
2023-04-23T03:54:23.527Z,15.23
2023-04-23T03:57:13.131Z,15.13
2023-04-23T03:59:54.900Z,14.80
2023-04-23T04:02:23.685Z,16.03
2023-04-23T04:04:55.436Z,15.37
2023-04-23T04:07:28.394Z,15.10
2023-04-23T04:09:57.982Z,15.00
2023-04-23T04:12:28.163Z,14.20
2023-04-23T04:14:56.712Z,13.10
2023-04-23T04:17:25.118Z,14.03
2023-04-23T04:19:53.544Z,14.80
2023-04-23T04:22:21.935Z,14.60
2023-04-23T04:24:52.751Z,15.80
2023-04-23T04:27:21.239Z,16.07
2023-04-23T04:29:49.652Z,14.97
2023-04-23T04:32:18.133Z,16.53
2023-04-23T04:34:47.027Z,14.57
2023-04-23T04:37:15.427Z,15.80
2023-04-23T04:39:43.836Z,14.23
2023-04-23T04:42:13.909Z,13.40
2023-04-23T04:44:43.877Z,14.27
2023-04-23T04:47:13.693Z,14.40
2023-04-23T04:49:42.098Z,14.63
2023-04-23T04:52:10.480Z,14.40
2023-04-23T04:54:38.928Z,14.43
2023-04-23T04:57:07.635Z,13.43
2023-04-23T04:59:37.331Z,14.13
2023-04-23T05:02:05.773Z,14.40
2023-04-23T05:04:34.348Z,13.40
2023-04-23T05:07:02.721Z,14.17
2023-04-23T05:09:31.175Z,14.30
2023-04-23T05:11:59.778Z,15.50
2023-04-23T05:14:29.048Z,14.27
2023-04-23T05:16:58.876Z,13.43
2023-04-23T05:19:27.551Z,13.40
2023-04-23T05:21:56.020Z,14.10
2023-04-23T05:24:24.436Z,14.40
2023-04-23T05:26:53.087Z,14.07
2023-04-23T05:29:21.502Z,13.27
2023-04-23T05:31:50.366Z,12.80
2023-04-23T05:34:20.265Z,13.60
2023-04-23T05:36:48.740Z,11.97
2023-04-23T05:39:17.148Z,13.90
2023-04-23T05:41:45.550Z,13.33
2023-04-23T05:44:13.919Z,13.07
2023-04-23T05:46:42.244Z,13.67
2023-04-23T05:49:10.641Z,12.50
2023-04-23T05:51:41.479Z,12.70
2023-04-23T05:54:10.038Z,11.83
2023-04-23T05:56:38.407Z,11.43
2023-04-23T05:59:06.850Z,12.27
2023-04-23T06:01:35.244Z,11.60
2023-04-23T06:04:04.132Z,11.97
2023-04-23T06:06:32.800Z,11.90
2023-04-23T06:09:02.574Z,12.20
2023-04-23T06:11:32.286Z,11.63
2023-04-23T06:14:01.006Z,13.93
2023-04-23T06:16:29.425Z,11.43
2023-04-23T06:18:58.057Z,11.20
2023-04-23T06:21:27.366Z,12.67
2023-04-23T06:23:55.989Z,12.35
2023-04-23T06:26:25.725Z,12.67
2023-04-23T06:28:57.755Z,11.80
2023-04-23T06:31:33.075Z,12.57
2023-04-23T06:34:01.883Z,12.17
2023-04-23T06:36:30.401Z,11.80
2023-04-23T06:38:58.843Z,12.20
2023-04-23T06:41:28.775Z,12.43
2023-04-23T06:44:21.581Z,12.73
2023-04-23T06:46:55.874Z,12.53
2023-04-23T06:49:24.292Z,12.05
2023-04-23T06:51:52.801Z,12.68
2023-04-23T06:54:21.304Z,12.20
2023-04-23T06:56:51.232Z,12.30
2023-04-23T06:59:20.307Z,12.20
2023-04-23T07:01:52.540Z,12.60
2023-04-23T07:04:20.918Z,12.15
2023-04-23T07:06:49.375Z,13.85
2023-04-23T07:09:17.916Z,12.02
2023-04-23T07:11:46.602Z,11.75
2023-04-23T07:14:16.348Z,12.52
2023-04-23T07:16:44.759Z,11.80
2023-04-23T07:19:13.370Z,12.05
2023-04-23T07:21:42.171Z,11.93
2023-04-23T07:24:11.322Z,12.05
2023-04-23T07:26:40.013Z,11.55
2023-04-23T07:29:10.629Z,10.88
2023-04-23T07:31:42.778Z,11.52
2023-04-23T07:34:11.449Z,11.60
2023-04-23T07:36:39.914Z,12.20
2023-04-23T07:39:08.324Z,12.27
2023-04-23T07:41:37.625Z,11.50
2023-04-23T07:44:06.175Z,12.40
2023-04-23T07:46:34.698Z,10.93
2023-04-23T07:49:04.473Z,11.40
2023-04-23T07:51:32.898Z,10.45
2023-04-23T07:54:01.314Z,11.55
2023-04-23T07:56:32.710Z,11.30
2023-04-23T07:59:01.511Z,11.82
2023-04-23T08:01:30.193Z,13.18
2023-04-23T08:04:00.865Z,11.68
2023-04-23T08:06:31.579Z,11.45
2023-04-23T08:09:00.392Z,11.25
2023-04-23T08:11:29.753Z,11.27
2023-04-23T08:13:58.455Z,12.10
2023-04-23T08:16:27.519Z,12.05
2023-04-23T08:19:04.915Z,11.80
2023-04-23T08:21:37.752Z,12.25
2023-04-23T08:24:07.862Z,11.32
2023-04-23T08:26:36.651Z,10.18
2023-04-23T08:29:05.317Z,11.48
2023-04-23T08:31:34.422Z,11.10
2023-04-23T08:34:02.938Z,10.65
2023-04-23T08:36:32.144Z,11.73
2023-04-23T08:39:04.126Z,11.70
2023-04-23T08:41:40.161Z,11.10
2023-04-23T08:44:14.855Z,13.48
2023-04-23T08:46:45.323Z,13.40
2023-04-23T08:49:17.625Z,12.93
2023-04-23T08:51:51.077Z,12.85
2023-04-23T08:54:27.968Z,12.40
2023-04-23T08:56:58.789Z,13.00
2023-04-23T08:59:27.717Z,11.90
2023-04-23T09:01:56.948Z,12.48
2023-04-23T09:04:26.291Z,12.88
2023-04-23T09:06:54.691Z,13.75
2023-04-23T09:09:26.866Z,13.30
2023-04-23T09:11:56.445Z,18.67
2023-04-23T09:14:26.312Z,14.55
2023-04-23T09:16:56.089Z,12.73
2023-04-23T09:19:27.692Z,13.15
2023-04-23T09:21:56.323Z,12.85
2023-04-23T09:24:26.564Z,12.05
2023-04-23T09:26:55.164Z,11.32
2023-04-23T09:29:25.050Z,11.23
2023-04-23T09:31:55.700Z,11.05
2023-04-23T09:34:26.660Z,11.57
2023-04-23T09:36:55.568Z,12.23
2023-04-23T09:39:26.189Z,11.02
2023-04-23T09:41:55.133Z,11.38
2023-04-23T09:44:24.218Z,12.15
2023-04-23T09:46:53.003Z,12.68
2023-04-23T09:49:22.076Z,11.82
2023-04-23T09:51:51.326Z,12.70
2023-04-23T09:54:21.819Z,12.20
2023-04-23T09:56:53.927Z,12.35
2023-04-23T09:59:35.488Z,12.48
2023-04-23T10:02:09.792Z,12.63
2023-04-23T10:04:40.367Z,12.57
2023-04-23T10:09:45.308Z,10.68
2023-04-23T10:14:53.845Z,11.25
2023-04-23T10:17:22.540Z,10.93
2023-04-23T10:19:52.790Z,10.13
2023-04-23T10:22:23.178Z,10.95
2023-04-23T10:24:58.846Z,11.30
2023-04-23T10:27:44.577Z,10.05
2023-04-23T10:30:18.113Z,9.98
2023-04-23T10:32:49.035Z,8.60
2023-04-23T10:35:17.795Z,9.82
2023-04-23T10:37:48.305Z,9.73
2023-04-23T10:40:22.167Z,9.77
2023-04-23T10:42:52.563Z,9.70
2023-04-23T10:45:25.722Z,9.13
2023-04-23T10:47:56.618Z,9.38
2023-04-23T10:50:26.955Z,10.23
2023-04-23T10:52:57.630Z,10.20
2023-04-23T10:55:28.538Z,10.07
2023-04-23T10:58:03.395Z,9.00
2023-04-23T11:00:46.098Z,9.32
2023-04-23T11:03:43.336Z,9.00
2023-04-23T11:06:15.843Z,9.80
2023-04-23T11:08:54.441Z,9.98
2023-04-23T11:11:39.875Z,9.65
2023-04-23T11:14:15.498Z,9.88
2023-04-23T11:16:44.173Z,9.43
2023-04-23T11:19:17.308Z,9.27
2023-04-23T11:22:03.514Z,10.10
2023-04-23T11:24:34.347Z,10.23
2023-04-23T11:27:02.921Z,9.45
2023-04-23T11:29:32.684Z,10.88
2023-04-23T11:32:03.879Z,9.68
2023-04-23T11:34:34.127Z,8.98
2023-04-23T11:37:05.181Z,9.63
2023-04-23T11:39:34.135Z,10.40
2023-04-23T11:42:03.580Z,10.98
2023-04-23T11:44:33.841Z,9.93
2023-04-23T11:47:03.549Z,10.02
2023-04-23T11:49:32.073Z,9.70
2023-04-23T11:52:02.754Z,8.88
2023-04-23T11:54:31.341Z,9.15
2023-04-23T11:57:00.115Z,9.63
2023-04-23T11:59:29.989Z,8.88
2023-04-23T12:02:01.012Z,8.45
2023-04-23T12:04:30.842Z,9.02
2023-04-23T12:07:00.407Z,9.77
2023-04-23T12:09:30.348Z,10.20
2023-04-23T12:11:59.481Z,10.00
2023-04-23T12:14:30.146Z,8.88
2023-04-23T12:17:10.223Z,9.65
2023-04-23T12:19:40.763Z,9.70
2023-04-23T12:22:09.568Z,9.05
2023-04-23T12:24:48.604Z,9.20
2023-04-23T12:27:22.095Z,9.07
2023-04-23T12:29:51.409Z,9.20
2023-04-23T12:32:25.692Z,9.15
2023-04-23T12:34:54.820Z,9.50
2023-04-23T12:37:26.003Z,9.43
2023-04-23T12:39:56.897Z,9.65
2023-04-23T12:42:26.179Z,9.45
2023-04-23T12:44:56.116Z,9.60
2023-04-23T12:47:26.096Z,9.10
2023-04-23T12:49:55.719Z,9.30
2023-04-23T12:52:24.245Z,9.18
2023-04-23T12:54:56.575Z,9.23
2023-04-23T12:57:25.441Z,9.40
2023-04-23T12:59:54.994Z,9.10
2023-04-23T13:02:26.980Z,7.90
2023-04-23T13:05:01.004Z,8.18
2023-04-23T13:07:29.760Z,8.05
2023-04-23T13:09:59.874Z,8.05
2023-04-23T13:12:28.487Z,8.45
2023-04-23T13:14:57.527Z,8.57
2023-04-23T13:17:27.549Z,9.07
2023-04-23T13:19:56.272Z,8.15
2023-04-23T13:22:28.561Z,8.63
2023-04-23T13:24:58.196Z,8.32
2023-04-23T13:27:27.458Z,8.50
2023-04-23T13:29:56.383Z,9.10
2023-04-23T13:32:27.606Z,8.88
2023-04-23T13:34:56.625Z,8.65
2023-04-23T13:37:26.711Z,7.97
2023-04-23T13:39:55.207Z,8.48
2023-04-23T13:42:23.573Z,8.23
2023-04-23T13:44:52.563Z,9.13
2023-04-23T13:47:21.048Z,8.95
2023-04-23T13:49:51.457Z,9.38
2023-04-23T13:52:19.931Z,9.98
2023-04-23T13:54:49.259Z,9.45
2023-04-23T13:57:17.703Z,9.35
2023-04-23T13:59:46.183Z,9.93
2023-04-23T14:02:14.640Z,10.18
2023-04-23T14:04:43.089Z,9.20
2023-04-23T14:07:12.741Z,10.07
2023-04-23T14:09:41.404Z,10.10
2023-04-23T14:12:10.572Z,9.98
2023-04-23T14:14:39.512Z,10.13
2023-04-23T14:17:07.910Z,10.55
2023-04-23T14:19:37.946Z,10.43
2023-04-23T14:22:06.703Z,10.82
2023-04-23T14:24:41.147Z,10.55
2023-04-23T14:27:09.697Z,10.15
2023-04-23T14:29:42.595Z,10.30
2023-04-23T14:32:11.301Z,10.88
2023-04-23T14:34:39.749Z,11.02
2023-04-23T14:37:08.288Z,10.45
2023-04-23T14:39:38.151Z,10.68
2023-04-23T14:42:06.854Z,10.05
2023-04-23T14:44:35.277Z,10.53
2023-04-23T14:47:03.858Z,10.65
2023-04-23T14:49:32.356Z,11.17
2023-04-23T14:52:00.785Z,10.37
2023-04-23T14:54:29.412Z,9.90
2023-04-23T14:56:59.077Z,8.40
2023-04-23T14:59:27.602Z,9.73
2023-04-23T15:01:56.791Z,9.27
2023-04-23T15:04:25.403Z,9.37
2023-04-23T15:06:53.979Z,11.57
2023-04-23T15:09:22.288Z,10.90
2023-04-23T15:11:52.316Z,10.10
2023-04-23T15:14:27.241Z,10.57
2023-04-23T15:16:55.835Z,10.30
2023-04-23T15:19:24.704Z,10.30
2023-04-23T15:21:53.237Z,10.30
2023-04-23T15:24:21.668Z,10.83
2023-04-23T15:26:53.379Z,11.20
2023-04-23T15:29:24.686Z,10.60
2023-04-23T15:31:58.256Z,10.60
2023-04-23T15:34:27.028Z,10.70
2023-04-23T15:36:55.430Z,10.70
2023-04-23T15:39:24.206Z,11.40
2023-04-23T15:41:53.901Z,12.70
2023-04-23T15:44:25.093Z,10.97
2023-04-23T15:46:53.657Z,10.90
2023-04-23T15:49:22.089Z,11.70
2023-04-23T15:51:50.683Z,10.87
2023-04-23T15:54:19.245Z,10.50
2023-04-23T15:56:47.685Z,10.63
2023-04-23T15:59:16.118Z,10.40
2023-04-23T16:01:46.007Z,10.53
2023-04-23T16:04:14.598Z,11.43
2023-04-23T16:06:43.151Z,12.43
2023-04-23T16:09:11.674Z,10.87
2023-04-23T16:11:40.372Z,11.37
2023-04-23T16:14:10.191Z,10.77
2023-04-23T16:16:39.576Z,10.70
2023-04-23T16:19:09.489Z,11.63
2023-04-23T16:21:37.909Z,10.97
2023-04-23T16:24:07.789Z,11.07
2023-04-23T16:26:37.472Z,10.47
2023-04-23T16:31:40.635Z,17.13
2023-04-23T16:34:10.456Z,20.00
2023-04-23T16:36:38.977Z,18.33
2023-04-23T16:39:07.458Z,18.10
2023-04-23T16:41:35.809Z,14.57
2023-04-23T16:44:04.199Z,14.67
2023-04-23T16:46:32.803Z,12.43
2023-04-23T16:49:01.377Z,10.67
2023-04-23T16:51:32.474Z,10.33
2023-04-23T16:54:01.177Z,11.70
2023-04-23T16:56:29.798Z,11.20
2023-04-23T16:58:58.912Z,13.30
2023-04-23T17:01:27.378Z,12.17
2023-04-23T17:03:56.040Z,11.30
2023-04-23T17:06:28.612Z,10.90
2023-04-23T17:09:00.151Z,10.90
2023-04-23T17:11:29.971Z,11.87
2023-04-23T17:13:59.019Z,10.47
2023-04-23T17:16:27.790Z,9.57
2023-04-23T17:18:58.220Z,9.57
2023-04-23T17:21:27.386Z,11.20
2023-04-23T17:23:55.898Z,10.13
2023-04-23T17:26:25.762Z,10.40
2023-04-23T17:28:54.148Z,9.50
2023-04-23T17:31:22.550Z,10.60
2023-04-23T17:33:51.056Z,10.37
2023-04-23T17:36:19.445Z,10.43
2023-04-23T17:38:47.882Z,10.83
2023-04-23T17:41:17.742Z,11.37
2023-04-23T17:43:49.457Z,11.80
2023-04-23T17:46:18.194Z,11.03
2023-04-23T17:48:46.939Z,10.27
2023-04-23T17:51:15.505Z,10.50
2023-04-23T17:53:48.296Z,10.83
2023-04-23T17:56:16.829Z,10.23
2023-04-23T17:58:45.329Z,10.90
2023-04-23T18:01:15.578Z,10.47
2023-04-23T18:03:44.430Z,10.30
2023-04-23T18:06:13.708Z,10.37
2023-04-23T18:08:42.819Z,9.47
2023-04-23T18:11:11.358Z,9.80
2023-04-23T18:13:39.675Z,9.30
2023-04-23T18:16:08.255Z,9.60
2023-04-23T18:18:38.054Z,9.90
2023-04-23T18:21:06.905Z,10.70
2023-04-23T18:23:36.034Z,10.80
2023-04-23T18:26:04.656Z,10.83
2023-04-23T18:28:35.070Z,10.30
2023-04-23T18:31:03.875Z,10.47
2023-04-23T18:33:38.205Z,11.13
2023-04-23T18:36:22.334Z,10.60
2023-04-23T18:38:51.003Z,9.93
2023-04-23T18:41:19.462Z,11.53
2023-04-23T18:43:47.913Z,12.53
2023-04-23T18:46:16.625Z,12.37
2023-04-23T18:48:53.502Z,12.37
2023-04-23T18:51:31.274Z,11.00
2023-04-23T18:54:01.616Z,12.50
2023-04-23T18:56:30.138Z,11.73
2023-04-23T18:58:58.520Z,12.57
2023-04-23T19:01:28.409Z,11.67
2023-04-23T19:03:57.953Z,11.63
2023-04-23T19:06:28.123Z,11.17
2023-04-23T19:08:56.629Z,11.80
2023-04-23T19:11:27.139Z,11.60
2023-04-23T19:13:55.385Z,11.33
2023-04-23T19:16:23.988Z,9.90
2023-04-23T19:18:52.429Z,9.87
2023-04-23T19:21:20.936Z,12.10
2023-04-23T19:23:52.150Z,9.50
2023-04-23T19:26:20.538Z,10.40
2023-04-23T19:28:49.006Z,10.87
2023-04-23T19:31:17.578Z,10.20
2023-04-23T19:33:47.674Z,10.87
2023-04-23T19:36:16.196Z,10.67
2023-04-23T19:38:44.664Z,10.70
2023-04-23T19:41:14.724Z,11.27
2023-04-23T19:43:43.163Z,10.30
2023-04-23T19:46:11.701Z,10.93
2023-04-23T19:48:40.125Z,12.60
2023-04-23T19:51:08.717Z,11.57
2023-04-23T19:53:37.090Z,11.67
2023-04-23T19:56:08.569Z,10.60
2023-04-23T19:58:39.828Z,11.03
2023-04-23T20:01:08.954Z,10.70
2023-04-23T20:03:39.500Z,10.87
2023-04-23T20:06:08.254Z,11.07
2023-04-23T20:08:53.007Z,11.50
2023-04-23T20:11:21.498Z,11.00
2023-04-23T20:13:51.733Z,10.47
2023-04-23T20:16:20.405Z,10.90
2023-04-23T20:18:49.619Z,11.03
2023-04-23T20:21:18.013Z,11.57
2023-04-23T20:23:46.399Z,11.30
2023-04-23T20:26:14.981Z,11.30
2023-04-23T20:28:44.309Z,10.77
2023-04-23T20:31:14.106Z,10.80
2023-04-23T20:33:42.572Z,12.20
2023-04-23T20:36:11.302Z,10.70
2023-04-23T20:38:40.025Z,10.60
2023-04-23T20:41:10.758Z,11.63
2023-04-23T20:43:39.788Z,11.50
2023-04-23T20:46:10.611Z,10.93
2023-04-23T20:48:43.423Z,10.90
2023-04-23T20:51:11.826Z,11.43
2023-04-23T20:53:40.396Z,11.57
2023-04-23T20:56:08.792Z,10.77
2023-04-23T20:58:37.516Z,11.23
2023-04-23T21:01:07.697Z,10.30
2023-04-23T21:03:37.094Z,11.30
2023-04-23T21:06:08.163Z,10.93
2023-04-23T21:08:38.982Z,11.83
2023-04-23T21:11:11.253Z,11.50
2023-04-23T21:13:39.695Z,11.33
2023-04-23T21:16:08.333Z,11.80
2023-04-23T21:18:36.828Z,11.30
2023-04-23T21:21:07.999Z,11.23
2023-04-23T21:23:36.972Z,11.27
2023-04-23T21:26:05.386Z,12.40
2023-04-23T21:28:34.014Z,12.00
2023-04-23T21:31:10.237Z,11.50
2023-04-23T21:33:38.585Z,11.10
2023-04-23T21:36:08.602Z,11.70
2023-04-23T21:38:37.048Z,11.90
2023-04-23T21:41:06.385Z,11.50
2023-04-23T21:43:35.616Z,12.13
2023-04-23T21:46:04.057Z,11.10
2023-04-23T21:48:33.729Z,11.13
2023-04-23T21:51:02.388Z,11.53
2023-04-23T21:53:32.238Z,12.00
2023-04-23T21:56:01.008Z,11.50
2023-04-23T21:58:31.492Z,11.63
2023-04-23T22:00:59.928Z,12.47
2023-04-23T22:03:38.711Z,10.83
2023-04-23T22:06:08.293Z,10.73
2023-04-23T22:08:40.410Z,10.53
2023-04-23T22:11:09.860Z,10.83
2023-04-23T22:13:38.307Z,10.80
2023-04-23T22:16:20.306Z,10.90
2023-04-23T22:18:53.654Z,10.63
2023-04-23T22:21:22.100Z,11.03
2023-04-23T22:23:51.938Z,10.97
2023-04-23T22:26:21.250Z,10.90
2023-04-23T22:28:49.672Z,10.77
2023-04-23T22:31:18.511Z,10.47
2023-04-23T22:33:46.928Z,10.80
2023-04-23T22:36:15.269Z,10.50
2023-04-23T22:38:43.625Z,11.87
2023-04-23T22:41:13.442Z,10.67
2023-04-23T22:43:41.942Z,10.20
2023-04-23T22:46:10.563Z,11.00
2023-04-23T22:48:44.096Z,11.60
2023-04-23T22:51:12.678Z,11.37
2023-04-23T22:53:41.530Z,11.20
2023-04-23T22:56:09.960Z,11.20
2023-04-23T22:58:39.857Z,12.10
2023-04-23T23:01:08.370Z,11.37
2023-04-23T23:03:36.934Z,11.13
2023-04-23T23:06:05.758Z,10.90
2023-04-23T23:08:34.207Z,11.53
2023-04-23T23:11:02.598Z,11.23
2023-04-23T23:13:30.970Z,11.33
2023-04-23T23:16:04.723Z,12.00
2023-04-23T23:18:33.451Z,10.60
2023-04-23T23:21:01.839Z,10.87
2023-04-23T23:23:30.595Z,10.90
2023-04-23T23:26:00.184Z,10.20
2023-04-23T23:28:28.862Z,10.40
2023-04-23T23:30:57.973Z,11.37
2023-04-23T23:33:28.345Z,10.60
2023-04-23T23:35:56.943Z,11.40
2023-04-23T23:38:25.470Z,10.73
2023-04-23T23:40:53.881Z,10.53
2023-04-23T23:43:22.322Z,11.17
2023-04-23T23:45:50.800Z,11.63
2023-04-23T23:48:19.539Z,10.80
2023-04-23T23:50:49.195Z,11.60
2023-04-23T23:53:17.567Z,12.73
2023-04-23T23:55:46.056Z,13.37
2023-04-23T23:58:14.580Z,14.87
